Terminal Aerodrome Forecast
Issued by NWS

Home | Current Version | Previous Version | Text Only | Print | Product List | Glossary On
Versions: 1 2 3 4 5 6 7 8 9 10 11 12 13 14 15 16
000
FTUS41 KGYX 301120
TAFHIE
TAF
KHIE 301120Z 3012/0112 09002KT P6SM OVC015
     FM301400 03002KT P6SM BKN035
     FM301800 06003KT P6SM OVC050
     FM010600 08002KT 4SM BR OVC015=

USA.gov is the U.S. government's official web portal to all federal, state and local government web resources and services.